| time (UTC) | temp C | wind direction | speed KPH | gust KPH | rain 1hr cm | rain 24hr cm | rain mn cm | humidity % | barometer mb |
| 20260906200031 | 27 | 105 | 6.4 | 14.5 | 0.00 | 0.00 | 0.00 | 65 | 1016.1 |
| 20260906194513 | 28 | 101 | 4.8 | 14.5 | 0.00 | 0.00 | 0.00 | 63 | 1016.1 |
| 20260906193020 | 27 | 177 | 3.2 | 11.3 | 0.00 | 0.03 | 0.00 | 64 | 1016.3 |
| 20260906191527 | 27 | 101 | 4.8 | 16.1 | 0.00 | 0.08 | 0.00 | 66 | 1016.4 |
| 20260906190030 | 27 | 142 | 4.8 | 16.1 | 0.00 | 0.08 | 0.00 | 66 | 1016.4 |
| 20260906184533 | 27 | 96 | 4.8 | 14.5 | 0.00 | 0.13 | 0.00 | 66 | 1016.6 |
| 20260906183024 | 27 | 186 | 3.2 | 12.9 | 0.00 | 0.13 | 0.00 | 68 | 1016.7 |
| 20260906181524 | 27 | 71 | 4.8 | 16.1 | 0.00 | 0.13 | 0.00 | 67 | 1016.9 |
| 20260906180031 | 26 | 163 | 1.6 | 8.0 | 0.00 | 0.13 | 0.00 | 67 | 1017.1 |
| 20260906174529 | 26 | 68 | 1.6 | 11.3 | 0.00 | 0.13 | 0.00 | 69 | 1017.3 |
| 20260906173037 | 26 | 111 | 3.2 | 9.7 | 0.00 | 0.13 | 0.00 | 69 | 1017.5 |
| 20260906171518 | 26 | 178 | 1.6 | 14.5 | 0.00 | 0.13 | 0.00 | 71 | 1017.8 |
| 20260906170024 | 25 | 71 | 4.8 | 12.9 | 0.00 | 0.13 | 0.00 | 71 | 1018.1 |
| 20260906164528 | 25 | 74 | 1.6 | 11.3 | 0.00 | 0.13 | 0.00 | 71 | 1018.1 |
| 20260906163031 | 25 | 32 | 1.6 | 11.3 | 0.00 | 0.13 | 0.00 | 71 | 1018.2 |
| 20260906161536 | 24 | 128 | 4.8 | 12.9 | 0.00 | 0.13 | 0.00 | 71 | 1018.3 |
| 20260906160024 | 24 | 94 | 4.8 | 14.5 | 0.00 | 0.13 | 0.00 | 72 | 1018.3 |
| 20260906154528 | 24 | 115 | 0.0 | 14.5 | 0.00 | 0.13 | 0.00 | 73 | 1018.2 |
| 20260906153033 | 23 | 123 | 1.6 | 8.0 | 0.00 | 0.13 | 0.00 | 73 | 1018.2 |
| 20260906151534 | 23 | 167 | 3.2 | 11.3 | 0.00 | 0.13 | 0.00 | 74 | 1018.3 |
| 20260906150031 | 22 | 156 | 1.6 | 14.5 | 0.00 | 0.13 | 0.00 | 76 | 1018.4 |
| 20260906144528 | 22 | 172 | 1.6 | 11.3 | 0.00 | 0.13 | 0.00 | 77 | 1018.4 |
| 20260906143031 | 21 | 111 | 3.2 | 9.7 | 0.00 | 0.13 | 0.00 | 80 | 1018.4 |
| 20260906141529 | 20 | 121 | 3.2 | 11.3 | 0.00 | 0.13 | 0.00 | 80 | 1018.4 |
| 20260906140037 | 20 | 113 | 3.2 | 12.9 | 0.00 | 0.13 | 0.00 | 81 | 1018.6 |
| 20260906134536 | 20 | 117 | 3.2 | 11.3 | 0.00 | 0.13 | 0.00 | 82 | 1018.6 |
| 20260906133026 | 19 | 89 | 4.8 | 11.3 | 0.00 | 0.13 | 0.00 | 82 | 1018.8 |
| 20260906131530 | 19 | 101 | 1.6 | 6.4 | 0.00 | 0.13 | 0.00 | 82 | 1018.6 |
| 20260906130037 | 18 | 92 | 3.2 | 9.7 | 0.00 | 0.13 | 0.00 | 82 | 1018.4 |
| 20260906124538 | 18 | 94 | 3.2 | 11.3 | 0.00 | 0.13 | 0.00 | 82 | 1018.4 |
| 20260906123033 | 18 | 103 | 1.6 | 6.4 | 0.00 | 0.13 | 0.00 | 82 | 1018.4 |
| 20260906121529 | 18 | 96 | 4.8 | 12.9 | 0.00 | 0.13 | 0.00 | 82 | 1018.2 |
| 20260906120030 | 17 | 98 | 0.0 | 9.7 | 0.00 | 0.13 | 0.00 | 82 | 1018.1 |
| 20260906114517 | 17 | 98 | 1.6 | 9.7 | 0.00 | 0.13 | 0.00 | 82 | 1018.1 |
| 20260906113023 | 17 | 113 | 3.2 | 6.4 | 0.00 | 0.13 | 0.00 | 82 | 1018.2 |
| 20260906111504 | 17 | 119 | 1.6 | 11.3 | 0.00 | 0.13 | 0.00 | 82 | 1018.2 |
| 20260906110006 | 17 | 103 | 3.2 | 11.3 | 0.00 | 0.13 | 0.00 | 82 | 1018.1 |
| 20260906104509 | 17 | 120 | 3.2 | 9.7 | 0.00 | 0.13 | 0.00 | 82 | 1018.1 |
| 20260906103018 | 17 | 126 | 3.2 | 9.7 | 0.00 | 0.13 | 0.00 | 82 | 1018.0 |
| 20260906101528 | 17 | 134 | 1.6 | 8.0 | 0.00 | 0.13 | 0.00 | 82 | 1018.0 |
| 20260906100004 | 17 | 134 | 3.2 | 6.4 | 0.00 | 0.13 | 0.00 | 81 | 1017.8 |
| 20260906094515 | 17 | 134 | 0.0 | 4.8 | 0.00 | 0.13 | 0.00 | 81 | 1017.8 |
| 20260906093028 | 17 | 154 | 1.6 | 4.8 | 0.00 | 0.13 | 0.00 | 81 | 1017.4 |
| 20260906091521 | 17 | 155 | 0.0 | 4.8 | 0.00 | 0.13 | 0.00 | 81 | 1017.6 |
| 20260906090028 | 18 | 155 | 0.0 | 8.0 | 0.00 | 0.13 | 0.00 | 81 | 1017.6 |
| 20260906084513 | 18 | 86 | 4.8 | 11.3 | 0.00 | 0.13 | 0.00 | 81 | 1017.2 |
| 20260906083010 | 18 | 62 | 3.2 | 9.7 | 0.00 | 0.13 | 0.00 | 81 | 1017.0 |
| 20260906081520 | 18 | 132 | 6.4 | 24.1 | 0.00 | 0.13 | 0.00 | 81 | 1016.0 |
| 20260906080027 | 18 | 103 | 3.2 | 9.7 | 0.00 | 0.13 | 0.00 | 81 | 1017.5 |
| 20260906074530 | 18 | 105 | 1.6 | 9.7 | 0.00 | 0.13 | 0.00 | 81 | 1017.9 |
| 20260906073008 | 17 | 110 | 3.2 | 11.3 | 0.00 | 0.13 | 0.00 | 81 | 1017.8 |
| 20260906071510 | 17 | 155 | 1.6 | 8.0 | 0.00 | 0.13 | 0.00 | 81 | 1018.1 |
| 20260906070018 | 17 | 105 | 3.2 | 12.9 | 0.00 | 0.13 | 0.00 | 81 | 1018.2 |
| 20260906064533 | 18 | 103 | 4.8 | 11.3 | 0.00 | 0.13 | 0.00 | 81 | 1018.1 |
| 20260906063027 | 18 | 132 | 1.6 | 4.8 | 0.00 | 0.13 | 0.00 | 81 | 1018.3 |
| 20260906061509 | 18 | 133 | 3.2 | 12.9 | 0.00 | 0.13 | 0.00 | 80 | 1018.2 |
| 20260906060022 | 18 | 113 | 4.8 | 11.3 | 0.00 | 0.13 | 0.00 | 80 | 1018.2 |
| 20260906054520 | 18 | 90 | 1.6 | 9.7 | 0.00 | 0.13 | 0.00 | 80 | 1018.3 |
| 20260906053030 | 18 | 92 | 3.2 | 6.4 | 0.00 | 0.13 | 0.00 | 79 | 1018.3 |
| 20260906051532 | 18 | 89 | 3.2 | 9.7 | 0.00 | 0.13 | 0.00 | 78 | 1018.2 |
| 20260906050012 | 18 | 95 | 4.8 | 11.3 | 0.00 | 0.13 | 0.00 | 78 | 1018.1 |
| 20260906044520 | 18 | 139 | 4.8 | 11.3 | 0.00 | 0.13 | 0.13 | 78 | 1018.0 |
| 20260906043026 | 18 | 142 | 3.2 | 9.7 | 0.00 | 0.13 | 0.13 | 78 | 1018.2 |
| 20260906041538 | 18 | 142 | 1.6 | 12.9 | 0.00 | 0.13 | 0.13 | 78 | 1018.4 |
| 20260906040033 | 18 | 132 | 1.6 | 9.7 | 0.00 | 0.13 | 0.13 | 77 | 1018.7 |
| 20260906034525 | 18 | 155 | 1.6 | 9.7 | 0.00 | 0.13 | 0.13 | 77 | 1018.6 |
| 20260906033025 | 18 | 171 | 1.6 | 12.9 | 0.00 | 0.13 | 0.13 | 76 | 1018.6 |
| 20260906031524 | 18 | 120 | 1.6 | 4.8 | 0.00 | 0.13 | 0.13 | 75 | 1018.5 |
| 20260906030031 | 18 | 121 | 3.2 | 16.1 | 0.00 | 0.13 | 0.13 | 75 | 1018.4 |
| 20260906024532 | 18 | 100 | 4.8 | 14.5 | 0.00 | 0.13 | 0.13 | 75 | 1018.1 |
| 20260906023017 | 19 | 92 | 4.8 | 14.5 | 0.00 | 0.13 | 0.13 | 75 | 1017.9 |
| 20260906021519 | 19 | 102 | 4.8 | 12.9 | 0.00 | 0.13 | 0.13 | 75 | 1017.8 |
| 20260906020026 | 18 | 91 | 6.4 | 16.1 | 0.00 | 0.13 | 0.13 | 75 | 1017.9 |
| 20260906014534 | 19 | 101 | 6.4 | 19.3 | 0.00 | 0.13 | 0.13 | 75 | 1017.2 |
| 20260906013033 | 19 | 144 | 1.6 | 11.3 | 0.00 | 0.13 | 0.13 | 74 | 1017.3 |
| 20260906011516 | 19 | 99 | 3.2 | 12.9 | 0.00 | 0.13 | 0.13 | 74 | 1017.3 |
| 20260906010026 | 20 | 119 | 3.2 | 9.7 | 0.00 | 0.13 | 0.13 | 73 | 1017.2 |
| 20260906004531 | 20 | 130 | 6.4 | 17.7 | 0.00 | 0.13 | 0.13 | 72 | 1016.6 |
| 20260906003032 | 20 | 97 | 6.4 | 14.5 | 0.00 | 0.13 | 0.13 | 71 | 1016.5 |
| 20260906001534 | 21 | 147 | 6.4 | 14.5 | 0.00 | 0.13 | 0.13 | 71 | 1015.9 |
| 20260906000024 | 21 | 130 | 6.4 | 14.5 | 0.00 | 0.13 | 0.13 | 70 | 1015.6 |
| 20260905234527 | 21 | 98 | 4.8 | 17.7 | 0.00 | 0.13 | 0.13 | 70 | 1015.7 |
| 20260905233030 | 22 | 140 | 8.0 | 20.9 | 0.00 | 0.13 | 0.13 | 69 | 1015.5 |
| 20260905231531 | 22 | 98 | 4.8 | 17.7 | 0.00 | 0.13 | 0.13 | 69 | 1015.5 |
| 20260905230032 | 23 | 117 | 4.8 | 16.1 | 0.00 | 0.13 | 0.13 | 67 | 1015.7 |
| 20260905224525 | 23 | 97 | 3.2 | 9.7 | 0.00 | 0.13 | 0.13 | 66 | 1015.7 |
| 20260905223031 | 24 | 88 | 3.2 | 9.7 | 0.00 | 0.13 | 0.13 | 65 | 1015.3 |
| 20260905221538 | 24 | 175 | 1.6 | 9.7 | 0.00 | 0.13 | 0.13 | 67 | 1015.1 |
| 20260905220033 | 23 | 169 | 1.6 | 14.5 | 0.00 | 0.13 | 0.13 | 68 | 1015.2 |
| 20260905214536 | 23 | 155 | 1.6 | 14.5 | 0.00 | 0.13 | 0.13 | 69 | 1015.5 |
| 20260905213033 | 23 | 83 | 3.2 | 16.1 | 0.00 | 0.13 | 0.13 | 70 | 1015.7 |
| 20260905211532 | 23 | 126 | 3.2 | 9.7 | 0.00 | 0.13 | 0.13 | 68 | 1016.0 |
| 20260905210034 | 23 | 153 | 3.2 | 8.0 | 0.00 | 0.13 | 0.13 | 69 | 1015.9 |
| 20260905204535 | 22 | 70 | 4.8 | 20.9 | 0.00 | 0.13 | 0.13 | 71 | 1016.3 |
| 20260905203024 | 21 | 105 | 9.7 | 20.9 | 0.03 | 0.13 | 0.13 | 72 | 1016.3 |
| 20260905201528 | 21 | 78 | 3.2 | 14.5 | 0.08 | 0.13 | 0.13 | 75 | 1016.8 |